Time;durP1;ratioP1;P1;durP2;ratioP2;P2;SDS_P1;SDS_P2;PMS_P1;PMS_P2;Temp;Humidity;BMP_temperature;BMP_pressure;BME280_temperature;BME280_humidity;BME280_pressure;Samples;Min_cycle;Max_cycle;Signal;HPM_P1;HPM_P2
2022/08/20 00:02:56;;;;;;;18.80;12.20;;;;;;;23.44;83.42;99327.30;106477;1274;61989;-79
2022/08/20 00:05:53;;;;;;;18.90;12.70;;;;;;;23.44;82.76;99327.05;106996;1271;59649;-80
2022/08/20 00:08:45;;;;;;;26.90;13.40;;;;;;;23.47;82.66;99333.59;106491;1271;74821;-80
2022/08/20 00:11:34;;;;;;;19.70;12.70;;;;;;;23.50;83.97;99337.54;106442;1273;66545;-80
2022/08/20 00:14:21;;;;;;;19.70;13.50;;;;;;;23.50;82.59;99339.34;106452;1271;72905;-80
2022/08/20 00:17:09;;;;;;;18.20;13.60;;;;;;;23.52;82.27;99339.27;106829;1271;58573;-80
2022/08/20 00:19:56;;;;;;;18.00;14.20;;;;;;;23.54;81.70;99336.45;107137;1274;61084;-80
2022/08/20 00:22:45;;;;;;;19.10;13.10;;;;;;;23.57;81.39;99337.38;107488;1271;72035;-79
2022/08/20 00:25:34;;;;;;;20.00;14.00;;;;;;;23.59;80.85;99337.83;107581;1271;66971;-79
2022/08/20 00:28:22;;;;;;;21.70;14.50;;;;;;;23.59;80.53;99335.91;107371;1271;71540;-79
2022/08/20 00:31:15;;;;;;;21.50;12.90;;;;;;;23.61;80.30;99341.48;107333;1274;60164;-80
2022/08/20 00:34:03;;;;;;;18.50;13.40;;;;;;;23.62;80.48;99338.75;107315;1271;60817;-78
2022/08/20 00:36:51;;;;;;;18.40;12.40;;;;;;;23.62;81.19;99335.66;107451;1271;73972;-79
2022/08/20 00:39:39;;;;;;;20.40;12.50;;;;;;;23.60;81.10;99340.15;106273;1271;66836;-80
2022/08/20 00:42:28;;;;;;;19.80;12.70;;;;;;;23.58;80.65;99335.95;106203;1271;72112;-79
2022/08/20 00:45:19;;;;;;;20.50;13.20;;;;;;;23.55;81.24;99339.58;106196;1271;59732;-79
2022/08/20 00:48:07;;;;;;;18.80;13.30;;;;;;;23.49;82.03;99341.25;107129;1271;61002;-79
2022/08/20 00:51:08;;;;;;;19.60;13.20;;;;;;;23.43;81.52;99347.14;107256;1274;74564;-80
2022/08/20 00:54:52;;;;;;;19.40;12.80;;;;;;;23.40;81.21;99343.91;107321;1271;68756;-80
2022/08/20 00:57:47;;;;;;;21.30;13.60;;;;;;;23.39;80.41;99351.36;106802;1271;73367;-79
2022/08/20 01:00:48;;;;;;;20.70;13.10;;;;;;;23.39;80.00;99361.73;107180;1271;60347;-80
2022/08/20 01:03:37;;;;;;;21.90;14.20;;;;;;;23.38;79.89;99363.72;107092;1271;59763;-79
2022/08/20 01:06:25;;;;;;;22.80;13.30;;;;;;;23.37;79.50;99355.47;107604;1274;72039;-79
2022/08/20 01:09:13;;;;;;;21.00;14.90;;;;;;;23.35;79.53;99340.85;107474;1271;66833;-79
2022/08/20 01:12:04;;;;;;;23.80;16.00;;;;;;;23.32;79.80;99343.14;107396;1274;72371;-79
2022/08/20 01:14:53;;;;;;;24.60;15.50;;;;;;;23.29;79.70;99338.27;107388;1271;60834;-79
2022/08/20 01:17:57;;;;;;;22.60;15.50;;;;;;;23.26;79.62;99335.29;106853;1271;59637;-79
2022/08/20 01:20:53;;;;;;;22.90;15.50;;;;;;;23.24;80.01;99342.88;106821;1271;74834;-81
2022/08/20 01:23:52;;;;;;;23.60;16.40;;;;;;;23.22;80.38;99330.97;105275;1272;66784;-79
2022/08/20 01:26:45;;;;;;;21.60;16.00;;;;;;;23.21;80.60;99326.11;105464;1271;74253;-80
2022/08/20 01:29:39;;;;;;;23.10;16.40;;;;;;;23.16;80.66;99324.92;105626;1271;59577;-81
2022/08/20 01:32:27;;;;;;;26.90;16.40;;;;;;;23.14;80.74;99315.88;105179;1271;61081;-80
2022/08/20 01:35:21;;;;;;;21.20;15.20;;;;;;;23.12;80.68;99304.48;105627;1271;73468;-80
2022/08/20 01:38:11;;;;;;;21.50;14.50;;;;;;;23.10;80.80;99307.69;105811;1271;67334;-80
2022/08/20 01:41:13;;;;;;;21.30;14.20;;;;;;;23.06;81.58;99305.44;105853;1271;72476;-79
2022/08/20 01:44:03;;;;;;;21.10;14.20;;;;;;;22.97;82.31;99307.04;106168;1271;60340;-81
2022/08/20 01:46:56;;;;;;;21.60;13.90;;;;;;;22.87;83.35;99313.23;106580;1271;61841;-78
2022/08/20 01:49:50;;;;;;;22.20;14.60;;;;;;;22.74;84.98;99316.95;107655;1271;72028;-79
2022/08/20 01:52:56;;;;;;;20.60;13.90;;;;;;;22.59;86.68;99316.52;107486;1271;68552;-81
2022/08/20 01:55:44;;;;;;;19.30;13.00;;;;;;;22.44;87.51;99314.75;107183;1271;71552;-79
2022/08/20 01:58:36;;;;;;;21.70;14.00;;;;;;;22.34;87.90;99312.02;107226;1274;59046;-79
2022/08/20 02:01:39;;;;;;;22.60;13.90;;;;;;;22.24;89.09;99313.42;106484;1271;1649228;-79
2022/08/20 02:04:34;;;;;;;22.90;13.80;;;;;;;22.15;89.51;99318.34;107499;1271;73389;-79
2022/08/20 02:07:23;;;;;;;20.20;13.70;;;;;;;22.09;90.13;99323.38;107428;1272;70329;-79
2022/08/20 02:10:15;;;;;;;22.50;13.70;;;;;;;22.04;91.26;99332.08;106577;1271;73161;-79
2022/08/20 02:13:04;;;;;;;20.80;12.00;;;;;;;21.95;92.14;99339.20;106058;1271;59757;-80
2022/08/20 02:15:52;;;;;;;19.00;11.70;;;;;;;21.86;92.47;99345.90;106333;1274;62197;-79
2022/08/20 02:18:40;;;;;;;18.10;11.10;;;;;;;21.77;93.52;99347.65;106569;1271;75177;-79
2022/08/20 02:21:43;;;;;;;19.30;12.10;;;;;;;21.71;93.43;99352.91;106501;1274;68138;-79
2022/08/20 02:24:34;;;;;;;20.30;12.40;;;;;;;21.67;94.67;99354.95;106214;1271;70555;-78
2022/08/20 02:27:22;;;;;;;19.90;13.00;;;;;;;21.62;95.45;99358.49;106570;1271;60009;-80
2022/08/20 02:30:22;;;;;;;18.30;12.40;;;;;;;21.58;95.77;99358.21;106672;1271;62087;-80
2022/08/20 02:33:18;;;;;;;19.30;12.10;;;;;;;21.53;96.33;99361.86;106681;1271;74080;-78
2022/08/20 02:36:11;;;;;;;21.60;12.40;;;;;;;21.49;96.83;99369.20;106000;1271;67420;-79
2022/08/20 02:38:59;;;;;;;20.40;13.20;;;;;;;21.44;96.78;99371.34;106754;1271;73364;-79
2022/08/20 02:41:49;;;;;;;18.80;11.80;;;;;;;21.41;96.77;99372.70;106818;1271;61385;-79
2022/08/20 02:44:39;;;;;;;19.00;10.80;;;;;;;21.39;96.50;99369.58;106906;1272;60556;-79
2022/08/20 02:47:27;;;;;;;17.30;10.50;;;;;;;21.36;96.68;99374.36;106995;1271;71953;-78
2022/08/20 02:50:19;;;;;;;17.40;10.60;;;;;;;21.34;97.40;99372.24;106675;1271;68046;-78
2022/08/20 02:53:07;;;;;;;18.10;11.60;;;;;;;21.30;96.96;99372.65;107081;1271;72307;-78
2022/08/20 02:55:56;;;;;;;17.20;11.30;;;;;;;21.31;96.99;99369.40;106679;1272;59663;-79
2022/08/20 02:58:44;;;;;;;18.90;11.10;;;;;;;21.31;97.48;99368.40;106650;1271;60500;-80
2022/08/20 03:01:33;;;;;;;17.20;10.80;;;;;;;21.30;97.47;99368.20;106432;1271;74770;-79
2022/08/20 03:04:21;;;;;;;18.40;10.40;;;;;;;21.29;97.82;99363.83;106763;1271;68033;-80
2022/08/20 03:07:13;;;;;;;18.70;10.90;;;;;;;21.27;97.72;99362.41;106539;1274;72599;-82
2022/08/20 03:10:01;;;;;;;17.40;10.90;;;;;;;21.26;97.95;99360.25;106265;1271;59619;-81
2022/08/20 03:12:49;;;;;;;16.50;11.00;;;;;;;21.26;98.12;99362.61;106299;1271;62393;-80
2022/08/20 03:15:49;;;;;;;17.80;11.30;;;;;;;21.25;98.89;99362.61;106263;1271;74620;-78
2022/08/20 03:18:46;;;;;;;18.30;11.60;;;;;;;21.23;98.85;99364.60;106528;1271;69999;-80
2022/08/20 03:21:38;;;;;;;19.40;10.20;;;;;;;21.23;98.94;99375.48;106297;1274;71589;-78
2022/08/20 03:24:27;;;;;;;16.40;11.20;;;;;;;21.21;99.61;99385.04;106416;1271;59485;-80
2022/08/20 03:27:15;;;;;;;18.60;11.40;;;;;;;21.20;99.33;99395.57;106204;1274;59755;-79
2022/08/20 03:30:12;;;;;;;18.90;12.10;;;;;;;21.22;99.85;99400.86;106965;1271;74570;-78
2022/08/20 03:33:00;;;;;;;20.40;11.80;;;;;;;21.21;99.68;99407.77;106611;1271;69436;-79
2022/08/20 03:35:48;;;;;;;17.10;11.40;;;;;;;21.22;99.76;99411.96;106394;1271;71558;-79
2022/08/20 03:38:36;;;;;;;18.20;13.00;;;;;;;21.23;100.00;99423.17;106304;1271;59762;-79
2022/08/20 03:41:25;;;;;;;21.50;11.80;;;;;;;21.23;100.00;99421.47;106475;1271;61022;-79
2022/08/20 03:44:13;;;;;;;20.10;11.90;;;;;;;21.24;99.77;99423.13;106535;1271;73614;-81
2022/08/20 03:47:06;;;;;;;18.90;12.00;;;;;;;21.25;99.59;99424.55;106529;1271;68631;-79
2022/08/20 03:50:00;;;;;;;18.90;11.70;;;;;;;21.26;99.77;99433.45;105824;1271;73384;-80
2022/08/20 03:52:47;;;;;;;19.70;11.80;;;;;;;21.26;99.77;99436.83;106149;1271;59753;-79
2022/08/20 03:55:36;;;;;;;16.60;10.90;;;;;;;21.28;99.60;99435.09;106433;1274;60434;-79
2022/08/20 03:58:23;;;;;;;16.60;11.40;;;;;;;21.27;99.28;99430.46;106720;1271;73342;-79
2022/08/20 04:01:22;;;;;;;17.30;11.30;;;;;;;21.28;98.83;99431.42;106837;1271;68806;-79
2022/08/20 04:04:30;;;;;;;16.80;10.80;;;;;;;21.30;99.01;99427.02;106808;1274;71575;-79
2022/08/20 04:07:24;;;;;;;19.50;12.30;;;;;;;21.31;98.68;99430.80;106248;1271;61560;-80
2022/08/20 04:10:13;;;;;;;19.90;11.40;;;;;;;21.36;98.79;99426.77;106535;1271;60956;-81
2022/08/20 04:13:04;;;;;;;19.70;11.60;;;;;;;21.39;98.26;99424.83;106589;1273;73743;-79
2022/08/20 04:15:54;;;;;;;20.30;12.00;;;;;;;21.44;98.39;99432.92;106860;1271;66595;-81
2022/08/20 04:18:42;;;;;;;19.10;12.10;;;;;;;21.47;98.26;99444.29;106800;1271;73509;-79
2022/08/20 04:21:49;;;;;;;20.40;12.60;;;;;;;21.48;98.18;99450.79;106680;1271;59728;-80
2022/08/20 04:24:37;;;;;;;18.10;11.80;;;;;;;21.50;98.00;99451.95;106587;1274;60399;-80
2022/08/20 04:27:25;;;;;;;18.80;12.00;;;;;;;21.53;98.00;99452.70;106918;1271;73153;-80
2022/08/20 04:30:15;;;;;;;18.40;12.60;;;;;;;21.56;97.63;99456.27;105851;1271;66834;-79
2022/08/20 04:33:03;;;;;;;21.30;12.30;;;;;;;21.60;97.38;99457.33;106240;1271;74401;-83
2022/08/20 04:35:53;;;;;;;21.10;13.10;;;;;;;21.65;97.07;99459.51;105622;1271;60265;-78
2022/08/20 04:38:41;;;;;;;18.60;12.00;;;;;;;21.70;96.81;99461.58;105912;1271;59720;-78
2022/08/20 04:41:37;;;;;;;21.80;13.30;;;;;;;21.75;96.85;99466.25;105330;1271;74774;-78
2022/08/20 04:44:25;;;;;;;21.60;12.90;;;;;;;21.80;96.23;99462.09;105343;1271;66847;-76
2022/08/20 04:47:20;;;;;;;19.10;12.30;;;;;;;21.86;96.06;99454.55;105285;1271;73428;-77
2022/08/20 04:50:22;;;;;;;20.50;13.70;;;;;;;21.99;96.25;99455.35;105401;1273;59998;-77
2022/08/20 04:53:18;;;;;;;21.10;13.50;;;;;;;22.06;94.99;99450.55;105416;1271;61103;-79
2022/08/20 04:56:12;;;;;;;19.90;12.70;;;;;;;22.15;94.18;99450.50;105222;1274;73573;-72
2022/08/20 04:59:01;;;;;;;18.70;13.60;;;;;;;22.24;93.36;99451.08;105176;1271;69830;-72
2022/08/20 05:01:49;;;;;;;21.30;13.40;;;;;;;22.30;92.77;99453.11;105059;1271;74490;-74
2022/08/20 05:04:37;;;;;;;22.80;14.30;;;;;;;22.35;92.30;99446.02;104988;1271;59761;-72
2022/08/20 05:07:25;;;;;;;19.30;13.40;;;;;;;22.39;92.26;99439.83;104993;1271;59636;-73
2022/08/20 05:10:16;;;;;;;21.80;14.40;;;;;;;22.45;92.53;99432.30;105177;1274;73345;-73
2022/08/20 05:13:07;;;;;;;20.20;12.60;;;;;;;22.50;92.04;99441.46;105226;1271;66786;-75
2022/08/20 05:16:03;;;;;;;24.60;16.50;;;;;;;22.50;91.74;99443.59;105056;1274;72992;-75
2022/08/20 05:18:51;;;;;;;19.70;13.40;;;;;;;22.54;91.93;99443.63;105034;1271;60302;-74
2022/08/20 05:21:40;;;;;;;18.70;13.10;;;;;;;22.51;91.65;99448.68;105176;1271;60250;-73
2022/08/20 05:24:27;;;;;;;23.80;13.90;;;;;;;22.50;92.36;99455.56;105161;1271;73531;-76
2022/08/20 05:27:18;;;;;;;19.00;14.00;;;;;;;22.46;92.49;99454.91;105074;1271;67630;-75
2022/08/20 05:30:11;;;;;;;18.90;14.00;;;;;;;22.48;92.81;99450.15;105048;1274;74473;-75
2022/08/20 05:33:05;;;;;;;22.90;14.90;;;;;;;22.55;92.63;99447.76;105302;1271;59995;-74
2022/08/20 05:35:54;;;;;;;30.80;23.00;;;;;;;22.63;92.15;99439.35;105055;1274;61020;-75
2022/08/20 05:38:42;;;;;;;21.10;16.00;;;;;;;22.83;91.86;99436.77;105616;1271;73364;-75
2022/08/20 05:41:38;;;;;;;22.30;15.40;;;;;;;23.10;90.40;99426.77;105225;1271;69675;-74
2022/08/20 05:44:25;;;;;;;22.50;15.20;;;;;;;23.31;89.25;99423.77;104937;1274;72873;-73
2022/08/20 05:47:13;;;;;;;20.90;14.20;;;;;;;23.45;88.83;99422.32;105302;1271;59665;-74
2022/08/20 05:50:05;;;;;;;24.00;14.70;;;;;;;23.57;87.42;99431.59;105078;1271;61040;-76
2022/08/20 05:52:53;;;;;;;19.70;14.60;;;;;;;23.63;86.56;99438.65;105072;1271;73693;-75
2022/08/20 05:55:42;;;;;;;22.20;15.10;;;;;;;23.59;86.15;99438.22;105346;1274;66712;-74
2022/08/20 05:58:31;;;;;;;20.80;14.70;;;;;;;23.60;86.26;99441.59;105024;1271;74407;-73
2022/08/20 06:01:20;;;;;;;23.80;15.90;;;;;;;23.61;85.79;99443.05;104997;1271;59992;-73
2022/08/20 06:04:26;;;;;;;23.90;16.20;;;;;;;23.63;85.26;99444.49;105016;1271;61357;-74
2022/08/20 06:07:15;;;;;;;20.90;15.30;;;;;;;23.65;85.67;99441.98;105372;1272;74672;-74
2022/08/20 06:10:06;;;;;;;22.50;15.90;;;;;;;23.63;85.87;99436.80;105410;1273;68552;-76
2022/08/20 06:12:54;;;;;;;23.00;16.00;;;;;;;23.63;85.55;99436.23;105049;1271;73525;-74
2022/08/20 06:15:43;;;;;;;20.70;15.70;;;;;;;23.64;85.96;99441.19;104879;1274;59757;-74
2022/08/20 06:18:30;;;;;;;22.30;17.00;;;;;;;23.65;85.63;99449.42;105497;1271;60549;-75
2022/08/20 06:21:18;;;;;;;25.40;16.80;;;;;;;23.64;85.85;99449.13;105306;1271;74124;-75
2022/08/20 06:24:07;;;;;;;23.70;17.90;;;;;;;23.64;85.92;99446.12;104936;1271;66636;-73
2022/08/20 06:27:04;;;;;;;24.00;17.60;;;;;;;23.70;86.35;99444.65;105308;1271;73187;-74
2022/08/20 06:29:53;;;;;;;24.50;18.20;;;;;;;23.85;85.87;99441.91;105059;1271;61859;-74
2022/08/20 06:32:43;;;;;;;22.80;17.50;;;;;;;23.96;85.02;99443.14;104932;1273;59683;-74
2022/08/20 06:35:32;;;;;;;24.90;19.20;;;;;;;24.03;84.85;99449.61;105206;1271;73245;-76
2022/08/20 06:38:23;;;;;;;22.00;17.20;;;;;;;24.12;84.73;99450.94;105225;1272;66381;-72
2022/08/20 06:41:11;;;;;;;23.40;17.70;;;;;;;24.20;83.95;99458.14;105205;1271;71776;-74
2022/08/20 06:43:59;;;;;;;26.70;20.30;;;;;;;24.15;84.03;99461.79;105287;1274;59652;-71
2022/08/20 06:46:46;;;;;;;27.40;20.40;;;;;;;24.23;84.04;99463.98;105618;1270;62080;-73
2022/08/20 06:49:36;;;;;;;24.40;18.00;;;;;;;24.29;83.39;99464.84;104945;1274;73736;-71
2022/08/20 06:52:23;;;;;;;23.10;18.40;;;;;;;24.24;82.49;99462.00;105015;1271;66799;-72
2022/08/20 06:55:33;;;;;;;23.30;18.90;;;;;;;24.17;83.03;99463.70;105204;1274;74870;-71
2022/08/20 06:58:21;;;;;;;22.20;17.30;;;;;;;24.16;82.71;99457.69;105392;1271;59785;-72
2022/08/20 07:01:25;;;;;;;23.90;19.20;;;;;;;24.17;82.70;99454.17;105036;1271;60507;-72
2022/08/20 07:04:14;;;;;;;24.40;19.70;;;;;;;24.26;82.96;99456.46;105030;1274;72309;-73
2022/08/20 07:07:03;;;;;;;22.80;18.60;;;;;;;24.35;82.83;99459.52;105142;1271;66737;-71
2022/08/20 07:10:07;;;;;;;25.40;18.20;;;;;;;24.46;82.27;99462.21;105062;1274;73442;-73
2022/08/20 07:12:55;;;;;;;25.00;18.90;;;;;;;24.52;81.14;99466.02;105224;1271;60533;-71
2022/08/20 07:15:44;;;;;;;25.60;18.60;;;;;;;24.56;81.24;99468.16;105290;1271;61177;-74
2022/08/20 07:18:32;;;;;;;27.60;19.70;;;;;;;24.64;80.65;99460.95;105319;1271;74842;-73
2022/08/20 07:21:20;;;;;;;26.30;19.30;;;;;;;24.68;80.42;99460.91;105372;1271;67045;-74
2022/08/20 07:24:09;;;;;;;22.30;17.60;;;;;;;24.76;80.87;99462.91;105010;1271;74393;-71
2022/08/20 07:26:58;;;;;;;25.30;20.40;;;;;;;24.92;80.54;99473.92;105209;1271;59727;-72
2022/08/20 07:32:59;;;;;;;23.20;18.30;;;;;;;24.91;79.07;99483.54;105067;1271;72951;-72
2022/08/20 07:35:48;;;;;;;27.20;19.20;;;;;;;24.84;79.12;99481.41;105051;1274;69653;-71
2022/08/20 07:38:37;;;;;;;28.80;20.20;;;;;;;24.80;79.31;99478.23;105117;1271;72895;-72
2022/08/20 07:41:25;;;;;;;24.60;19.20;;;;;;;24.88;79.21;99481.64;105230;1271;59660;-73
2022/08/20 07:44:13;;;;;;;27.40;21.50;;;;;;;24.96;78.66;99482.26;105081;1274;61973;-73
2022/08/20 07:47:04;;;;;;;25.70;20.20;;;;;;;25.07;78.37;99485.98;105074;1271;72532;-72
2022/08/20 07:49:52;;;;;;;26.60;20.80;;;;;;;25.18;77.78;99489.02;105144;1271;66917;-71
2022/08/20 07:52:40;;;;;;;29.70;22.60;;;;;;;25.26;77.51;99493.81;105518;1271;71187;-71
2022/08/20 07:55:29;;;;;;;27.70;21.40;;;;;;;25.31;77.06;99493.26;104978;1274;59675;-74
2022/08/20 07:58:22;;;;;;;26.30;20.80;;;;;;;25.36;76.17;99497.07;105033;1271;61789;-74
2022/08/20 08:01:25;;;;;;;30.00;21.70;;;;;;;25.35;75.61;99498.89;104924;1270;73268;-73
2022/08/20 08:04:14;;;;;;;24.90;20.50;;;;;;;25.36;75.91;99500.27;105244;1271;68631;-74
2022/08/20 08:07:03;;;;;;;26.20;20.20;;;;;;;25.34;76.08;99502.67;105081;1274;74377;-72
2022/08/20 08:09:52;;;;;;;29.30;22.20;;;;;;;25.27;76.01;99504.16;105162;1271;59756;-75
2022/08/20 08:12:48;;;;;;;26.80;21.30;;;;;;;25.21;76.64;99506.41;105283;1271;59525;-71
2022/08/20 08:15:39;;;;;;;29.50;22.30;;;;;;;25.20;76.32;99511.57;105055;1271;73225;-72
2022/08/20 08:18:36;;;;;;;27.80;21.40;;;;;;;25.25;76.35;99515.41;105023;1271;68354;-71
2022/08/20 08:21:24;;;;;;;26.30;21.10;;;;;;;25.26;76.23;99515.06;104908;1271;74205;-72
2022/08/20 08:24:13;;;;;;;27.10;21.30;;;;;;;25.26;76.45;99518.75;104997;1274;59905;-72
2022/08/20 08:27:08;;;;;;;27.00;21.50;;;;;;;25.29;76.64;99523.73;105006;1271;61061;-71
2022/08/20 08:29:56;;;;;;;28.10;22.80;;;;;;;25.30;76.16;99528.08;105434;1274;75135;-72
2022/08/20 08:35:51;;;;;;;27.20;22.90;;;;;;;25.38;75.80;99529.09;105286;1271;71791;-71
2022/08/20 08:38:44;;;;;;;27.30;22.70;;;;;;;25.28;76.25;99527.85;105026;1271;59784;-74
2022/08/20 08:41:48;;;;;;;27.70;21.30;;;;;;;25.28;76.78;99527.44;105264;1271;59706;-74
2022/08/20 08:44:40;;;;;;;29.90;22.80;;;;;;;25.36;76.79;99526.20;105282;1271;73276;-72
2022/08/20 08:47:35;;;;;;;26.80;20.90;;;;;;;25.34;76.94;99529.59;105213;1271;69049;-73
2022/08/20 08:50:32;;;;;;;30.00;22.60;;;;;;;25.32;77.11;99530.86;104979;1271;72079;-74
2022/08/20 08:53:54;;;;;;;26.20;21.70;;;;;;;25.39;76.99;99529.44;105308;1271;59686;-74
2022/08/20 08:56:43;;;;;;;31.00;23.70;;;;;;;25.54;76.29;99531.77;105111;1274;59726;-73
2022/08/20 08:59:38;;;;;;;32.30;22.00;;;;;;;25.62;75.46;99530.89;104986;1269;74533;-73
2022/08/20 09:02:53;;;;;;;31.10;21.90;;;;;;;25.69;74.91;99528.03;105221;1271;68647;-73
2022/08/20 09:05:54;;;;;;;30.10;22.50;;;;;;;26.00;74.10;99526.95;105028;1271;72227;-72
2022/08/20 09:09:00;;;;;;;30.30;21.50;;;;;;;26.62;72.39;99526.89;105133;1271;59694;-71
2022/08/20 09:11:52;;;;;;;27.40;21.70;;;;;;;26.96;70.48;99518.55;104949;1273;60373;-73
2022/08/20 09:14:41;;;;;;;29.40;19.40;;;;;;;26.94;68.67;99517.12;105099;1274;72057;-72
2022/08/20 09:17:29;;;;;;;26.70;20.90;;;;;;;26.81;69.14;99516.65;105148;1271;66787;-72
2022/08/20 09:20:17;;;;;;;28.40;21.40;;;;;;;26.94;69.02;99513.92;105083;1271;72892;-72
2022/08/20 09:23:06;;;;;;;27.90;19.80;;;;;;;26.98;68.07;99514.60;105067;1271;59727;-74
2022/08/20 09:25:53;;;;;;;27.50;18.70;;;;;;;27.01;67.86;99517.02;105090;1271;62009;-72
2022/08/20 09:28:44;;;;;;;28.80;18.70;;;;;;;27.07;67.89;99516.32;105025;1271;73657;-74
2022/08/20 09:31:38;;;;;;;24.80;16.80;;;;;;;27.07;67.14;99519.04;105313;1271;66534;-72
2022/08/20 09:34:27;;;;;;;27.80;16.70;;;;;;;27.08;66.87;99520.21;105041;1271;73384;-73
2022/08/20 09:37:15;;;;;;;25.60;15.10;;;;;;;27.05;67.13;99524.88;105028;1274;59707;-72
2022/08/20 09:40:06;;;;;;;26.00;15.90;;;;;;;27.03;67.10;99527.26;105110;1271;60533;-71
2022/08/20 09:42:54;;;;;;;24.50;15.60;;;;;;;26.96;66.76;99524.17;105129;1271;73051;-71
2022/08/20 09:45:43;;;;;;;24.70;15.90;;;;;;;26.85;66.46;99529.90;105122;1274;67437;-73
2022/08/20 09:48:30;;;;;;;25.30;15.30;;;;;;;26.68;66.68;99525.87;105102;1271;74256;-74
2022/08/20 09:51:19;;;;;;;24.50;15.10;;;;;;;26.69;67.16;99521.60;105138;1271;59662;-71
2022/08/20 09:54:06;;;;;;;22.60;14.30;;;;;;;26.93;66.84;99517.98;105088;1271;59698;-69
2022/08/20 09:56:57;;;;;;;25.50;14.50;;;;;;;27.28;64.71;99513.07;105129;1271;74247;-73
2022/08/20 09:59:54;;;;;;;27.30;13.90;;;;;;;27.69;63.59;99506.22;104882;1271;68217;-71
2022/08/20 10:02:43;;;;;;;21.20;12.90;;;;;;;28.01;62.73;99504.88;105022;1274;74769;-73
2022/08/20 10:05:31;;;;;;;23.90;13.60;;;;;;;28.24;61.00;99497.22;105400;1271;59637;-71
2022/08/20 10:08:19;;;;;;;21.80;13.40;;;;;;;28.49;61.23;99490.42;105299;1274;62296;-72
2022/08/20 10:11:07;;;;;;;21.50;14.10;;;;;;;29.12;58.57;99490.23;105194;1270;71900;-73
2022/08/20 10:13:55;;;;;;;21.80;13.80;;;;;;;29.74;56.28;99491.02;104999;1274;68035;-72
2022/08/20 10:16:43;;;;;;;21.20;13.00;;;;;;;30.21;54.95;99491.30;104993;1271;74255;-73
2022/08/20 10:19:32;;;;;;;19.70;13.30;;;;;;;30.41;53.61;99496.33;105290;1274;59669;-73
2022/08/20 10:22:20;;;;;;;28.30;20.40;;;;;;;30.76;52.92;99489.64;105070;1271;60513;-73
2022/08/20 10:25:09;;;;;;;20.90;14.30;;;;;;;31.39;51.44;99489.90;104937;1271;74875;-74
2022/08/20 10:28:00;;;;;;;22.30;13.80;;;;;;;31.59;49.38;99490.52;105021;1271;66775;-72
2022/08/20 10:30:48;;;;;;;19.40;13.30;;;;;;;31.32;50.58;99490.65;105066;1274;71628;-73
2022/08/20 10:33:40;;;;;;;22.70;14.60;;;;;;;30.95;51.09;99494.08;105087;1271;59626;-73
2022/08/20 10:36:28;;;;;;;19.70;14.00;;;;;;;30.43;51.68;99503.66;105161;1271;61538;-74
2022/08/20 10:39:17;;;;;;;25.70;14.60;;;;;;;29.99;52.93;99498.77;105154;1271;74990;-73
2022/08/20 10:42:05;;;;;;;22.30;13.30;;;;;;;29.70;53.69;99498.92;105273;1271;66828;-72
2022/08/20 10:44:53;;;;;;;19.70;13.70;;;;;;;29.56;54.61;99498.24;105251;1271;74332;-74
2022/08/20 10:47:43;;;;;;;22.00;13.00;;;;;;;29.35;55.13;99494.23;104931;1271;59681;-73
2022/08/20 10:50:31;;;;;;;23.90;14.10;;;;;;;29.20;55.77;99490.58;104978;1274;59791;-72
2022/08/20 10:53:19;;;;;;;26.20;15.00;;;;;;;29.26;55.96;99491.16;105251;1271;73205;-77
2022/08/20 10:56:07;;;;;;;21.50;14.90;;;;;;;29.49;55.21;99495.20;105353;1274;69130;-75
2022/08/20 10:59:00;;;;;;;19.60;13.60;;;;;;;30.04;53.90;99499.41;105076;1271;73484;-74
2022/08/20 11:01:47;;;;;;;20.30;15.00;;;;;;;29.98;53.22;99500.02;105092;1271;59758;-73
2022/08/20 11:04:36;;;;;;;24.80;15.40;;;;;;;29.99;54.09;99495.69;105095;1271;59717;-75
2022/08/20 11:07:40;;;;;;;22.80;14.90;;;;;;;30.33;53.31;99499.52;105295;1271;73336;-72
2022/08/20 11:10:43;;;;;;;22.20;14.70;;;;;;;30.26;52.87;99498.48;105006;1271;66914;-74
2022/08/20 11:13:33;;;;;;;21.40;15.20;;;;;;;29.84;53.69;99491.77;105093;1274;74379;-72
2022/08/20 11:16:21;;;;;;;22.60;15.10;;;;;;;29.67;54.86;99493.25;105115;1271;59834;-73
2022/08/20 11:19:09;;;;;;;22.00;15.60;;;;;;;29.62;55.70;99493.52;105090;1274;60594;-73
2022/08/20 11:21:57;;;;;;;20.20;15.70;;;;;;;29.59;55.40;99494.52;105124;1270;74587;-74
2022/08/20 11:24:46;;;;;;;19.20;14.60;;;;;;;29.98;55.12;99492.38;105037;1271;68076;-75
2022/08/20 11:27:43;;;;;;;24.00;16.10;;;;;;;30.99;53.05;99491.45;105200;1271;72710;-72
2022/08/20 11:30:36;;;;;;;21.80;16.40;;;;;;;31.95;49.95;99495.27;104939;1274;59707;-74
2022/08/20 11:33:24;;;;;;;23.90;17.50;;;;;;;32.68;48.44;99495.27;105031;1271;60434;-74
2022/08/20 11:36:12;;;;;;;22.50;16.20;;;;;;;33.28;47.19;99496.25;105199;1274;74582;-73
2022/08/20 11:38:59;;;;;;;21.60;17.50;;;;;;;33.94;44.88;99493.64;105204;1271;66790;-73
2022/08/20 11:41:47;;;;;;;23.30;17.90;;;;;;;34.22;44.29;99492.23;105153;1270;74515;-73
2022/08/20 11:44:42;;;;;;;22.80;18.90;;;;;;;34.12;44.34;99492.45;104989;1273;59667;-74
2022/08/20 11:47:32;;;;;;;26.30;18.90;;;;;;;33.67;44.59;99490.13;105459;1271;60899;-73
2022/08/20 11:50:21;;;;;;;25.70;19.50;;;;;;;33.11;45.64;99492.74;105176;1271;73733;-73
2022/08/20 11:53:09;;;;;;;24.40;20.40;;;;;;;32.52;46.76;99495.36;105202;1271;68059;-75
2022/08/20 11:55:58;;;;;;;26.10;20.30;;;;;;;32.07;47.99;99491.77;104977;1272;72708;-74
2022/08/20 11:58:46;;;;;;;27.50;22.00;;;;;;;31.78;48.97;99488.78;105112;1271;59589;-73
2022/08/20 12:01:34;;;;;;;26.00;21.90;;;;;;;31.48;49.80;99486.73;105117;1274;61407;-74
2022/08/20 12:04:22;;;;;;;26.60;21.20;;;;;;;31.22;50.48;99482.98;105172;1270;73266;-70
2022/08/20 12:07:15;;;;;;;23.60;19.20;;;;;;;30.93;51.13;99483.90;105029;1271;68407;-74
2022/08/20 12:10:08;;;;;;;21.80;16.50;;;;;;;30.62;52.84;99488.86;105048;1271;73219;-74
2022/08/20 12:12:56;;;;;;;20.40;15.60;;;;;;;30.43;53.94;99491.02;105009;1271;59650;-72
2022/08/20 12:15:45;;;;;;;20.00;15.60;;;;;;;30.08;55.09;99489.77;105023;1274;60526;-73
2022/08/20 12:18:33;;;;;;;21.40;15.70;;;;;;;29.60;56.34;99487.70;105123;1271;72124;-73
2022/08/20 12:21:21;;;;;;;20.60;15.60;;;;;;;29.08;57.75;99495.77;105203;1271;68606;-72
2022/08/20 12:24:09;;;;;;;20.30;16.00;;;;;;;28.65;59.04;99495.86;105317;1271;73276;-73
2022/08/20 12:27:09;;;;;;;23.00;15.40;;;;;;;28.38;60.44;99494.96;105158;1273;59644;-73
2022/08/20 12:30:02;;;;;;;20.00;15.60;;;;;;;28.09;61.26;99493.59;105271;1271;60477;-71
2022/08/20 12:32:50;;;;;;;25.20;16.00;;;;;;;27.79;61.83;99494.75;104982;1274;75023;-73
2022/08/20 12:35:38;;;;;;;19.70;15.30;;;;;;;27.50;63.24;99493.48;105274;1270;69383;-74
2022/08/20 12:38:26;;;;;;;20.40;15.50;;;;;;;27.22;64.51;99493.35;105039;1271;73122;-72
2022/08/20 12:41:14;;;;;;;20.20;16.00;;;;;;;27.03;65.80;99493.30;104898;1272;59663;-72
2022/08/20 12:44:05;;;;;;;22.60;16.60;;;;;;;26.87;66.86;99489.16;105068;1274;60871;-74
2022/08/20 12:47:20;;;;;;;22.50;16.60;;;;;;;26.78;68.32;99494.13;105070;1271;74766;-73
2022/08/20 12:50:15;;;;;;;24.40;17.10;;;;;;;26.77;69.01;99498.26;104976;1271;68065;-72
2022/08/20 12:53:04;;;;;;;22.60;16.00;;;;;;;26.81;69.38;99495.08;105180;1271;70976;-74
2022/08/20 12:55:52;;;;;;;21.70;16.10;;;;;;;26.95;69.71;99489.46;105045;1271;59761;-75
2022/08/20 12:58:40;;;;;;;23.90;16.00;;;;;;;27.06;69.52;99490.50;105078;1271;61021;-73
2022/08/20 13:01:28;;;;;;;24.80;17.10;;;;;;;27.22;68.92;99492.80;105040;1270;74119;-73
2022/08/20 13:04:16;;;;;;;25.00;18.00;;;;;;;27.37;68.26;99498.30;105225;1271;68542;-71
2022/08/20 13:07:05;;;;;;;21.40;15.90;;;;;;;27.43;68.41;99498.86;105107;1274;73033;-72